createdAt,value
2018-04-18T00:00:02.254Z,12.67
2018-04-18T00:02:30.664Z,14.77
2018-04-18T00:04:59.091Z,10.03
2018-04-18T00:07:27.564Z,12.23
2018-04-18T00:09:56.006Z,14.23
2018-04-18T00:12:24.442Z,12.00
2018-04-18T00:14:52.921Z,11.03
2018-04-18T00:17:21.367Z,13.50
2018-04-18T00:19:49.800Z,15.13
2018-04-18T00:22:18.279Z,14.67
2018-04-18T00:24:46.709Z,10.93
2018-04-18T00:27:15.149Z,13.17
2018-04-18T00:29:43.613Z,13.17
2018-04-18T00:32:12.048Z,11.97
2018-04-18T00:34:40.477Z,10.80
2018-04-18T00:37:08.962Z,12.10
2018-04-18T00:39:37.380Z,13.90
2018-04-18T00:42:05.816Z,13.70
2018-04-18T00:44:34.284Z,14.43
2018-04-18T00:47:02.721Z,13.17
2018-04-18T00:49:31.156Z,12.43
2018-04-18T00:51:59.625Z,12.63
2018-04-18T00:54:28.075Z,14.33
2018-04-18T00:56:56.516Z,12.10
2018-04-18T00:59:24.993Z,13.73
2018-04-18T01:01:53.437Z,14.20
2018-04-18T01:04:21.861Z,12.20
2018-04-18T01:06:50.348Z,17.23
2018-04-18T01:09:18.776Z,12.43
2018-04-18T01:11:47.229Z,14.67
2018-04-18T01:14:15.720Z,15.17
2018-04-18T01:16:44.170Z,16.40
2018-04-18T01:19:12.629Z,17.83
2018-04-18T01:21:41.108Z,17.77
2018-04-18T01:24:09.537Z,13.57
2018-04-18T01:26:37.965Z,16.80
2018-04-18T01:29:06.670Z,17.73
2018-04-18T01:31:35.108Z,14.33
2018-04-18T01:34:03.852Z,15.60
2018-04-18T01:36:32.361Z,17.00
2018-04-18T01:39:00.816Z,15.90
2018-04-18T01:41:29.312Z,15.60
2018-04-18T01:43:57.865Z,18.73
2018-04-18T01:46:26.301Z,17.50
2018-04-18T01:49:06.539Z,17.97
2018-04-18T01:51:34.956Z,15.53
2018-04-18T01:54:03.421Z,19.57
2018-04-18T01:56:31.913Z,17.30
2018-04-18T01:59:00.343Z,20.83
2018-04-18T02:01:29.058Z,16.87
2018-04-18T02:03:57.545Z,22.47
2018-04-18T02:06:25.979Z,21.77
2018-04-18T02:08:54.448Z,20.67
2018-04-18T02:11:22.924Z,19.00
2018-04-18T02:13:51.350Z,18.60
2018-04-18T02:16:19.808Z,20.87
2018-04-18T02:18:48.309Z,22.87
2018-04-18T02:21:16.746Z,19.13
2018-04-18T02:23:45.173Z,19.17
2018-04-18T02:26:13.676Z,19.93
2018-04-18T02:28:42.116Z,22.73
2018-04-18T02:31:10.582Z,24.40
2018-04-18T02:33:39.081Z,19.10
2018-04-18T02:36:07.854Z,18.10
2018-04-18T02:38:36.308Z,22.30
2018-04-18T02:41:04.816Z,21.10
2018-04-18T02:43:33.262Z,26.43
2018-04-18T02:46:01.693Z,27.43
2018-04-18T02:48:30.221Z,24.63
2018-04-18T02:50:58.675Z,24.90
2018-04-18T02:53:27.109Z,25.90
2018-04-18T02:55:55.590Z,25.17
2018-04-18T02:58:24.016Z,26.80
2018-04-18T03:00:52.437Z,27.33
2018-04-18T03:03:20.936Z,29.90
2018-04-18T03:05:49.402Z,26.67
2018-04-18T03:08:17.841Z,27.20
2018-04-18T03:10:46.479Z,27.17
2018-04-18T03:13:14.916Z,27.10
2018-04-18T03:15:43.349Z,32.47
2018-04-18T03:18:11.819Z,27.73
2018-04-18T03:20:40.264Z,26.87
2018-04-18T03:23:08.688Z,31.83
2018-04-18T03:25:37.157Z,26.47
2018-04-18T03:28:05.581Z,30.03
2018-04-18T03:30:34.008Z,30.37
2018-04-18T03:33:02.485Z,27.43
2018-04-18T03:35:30.916Z,27.77
2018-04-18T03:37:59.344Z,26.93
2018-04-18T03:40:27.813Z,28.73
2018-04-18T03:42:56.245Z,28.70
2018-04-18T03:45:24.688Z,26.57
2018-04-18T03:47:53.184Z,27.60
2018-04-18T03:50:21.625Z,28.80
2018-04-18T03:52:50.096Z,28.10
2018-04-18T03:55:18.567Z,28.67
2018-04-18T03:57:47.006Z,27.67
2018-04-18T04:00:15.437Z,30.57
2018-04-18T04:02:43.936Z,31.23
2018-04-18T04:05:12.365Z,31.27
2018-04-18T04:07:40.796Z,29.30
2018-04-18T04:10:09.323Z,29.87
2018-04-18T04:12:37.780Z,32.23
2018-04-18T04:15:06.200Z,33.60
2018-04-18T04:17:46.396Z,33.37
2018-04-18T04:20:26.649Z,31.60
2018-04-18T04:23:06.837Z,30.23
2018-04-18T04:25:35.297Z,32.17
2018-04-18T04:28:03.725Z,29.37
2018-04-18T04:30:32.200Z,31.67
2018-04-18T04:33:00.664Z,26.43
2018-04-18T04:35:29.097Z,30.97
2018-04-18T04:37:57.569Z,30.30
2018-04-18T04:40:26.000Z,32.57
2018-04-18T04:42:54.440Z,30.03
2018-04-18T04:45:22.912Z,30.33
2018-04-18T04:47:51.343Z,34.70
2018-04-18T04:50:19.780Z,32.67
2018-04-18T04:52:48.267Z,29.47
2018-04-18T04:55:16.693Z,36.70
2018-04-18T04:57:45.136Z,31.50
2018-04-18T05:00:13.609Z,34.13
2018-04-18T05:02:42.037Z,31.97
2018-04-18T05:05:10.469Z,35.40
2018-04-18T05:07:39.098Z,33.40
2018-04-18T05:10:07.540Z,31.77
2018-04-18T05:12:35.986Z,30.20
2018-04-18T05:15:04.513Z,31.30
2018-04-18T05:17:32.968Z,30.83
2018-04-18T05:20:01.394Z,34.37
2018-04-18T05:22:29.860Z,30.37
2018-04-18T05:24:58.294Z,29.43
2018-04-18T05:27:26.729Z,36.43
2018-04-18T05:29:55.216Z,33.13
2018-04-18T05:32:23.645Z,32.37
2018-04-18T05:34:52.081Z,31.90
2018-04-18T05:37:20.574Z,28.90
2018-04-18T05:39:49.029Z,36.07
2018-04-18T05:42:17.480Z,32.73
2018-04-18T05:44:45.961Z,34.17
2018-04-18T05:47:14.388Z,34.47
2018-04-18T05:49:42.824Z,35.90
2018-04-18T05:52:11.335Z,30.97
2018-04-18T05:54:39.783Z,32.57
2018-04-18T05:57:08.228Z,29.87
2018-04-18T05:59:36.709Z,29.60
2018-04-18T06:02:05.169Z,29.57
2018-04-18T06:04:33.592Z,28.80
2018-04-18T06:07:02.063Z,31.43
2018-04-18T06:09:30.488Z,31.07
2018-04-18T06:11:58.913Z,30.17
2018-04-18T06:14:27.372Z,31.73
2018-04-18T06:16:55.810Z,30.97
2018-04-18T06:19:24.290Z,30.13
2018-04-18T06:21:52.763Z,32.07
2018-04-18T06:24:21.220Z,31.50
2018-04-18T06:26:49.658Z,32.17
2018-04-18T06:29:18.148Z,29.23
2018-04-18T06:31:46.579Z,29.30
2018-04-18T06:34:15.011Z,38.27
2018-04-18T06:36:43.493Z,28.17
2018-04-18T06:39:11.937Z,27.70
2018-04-18T06:41:40.387Z,30.40
2018-04-18T06:44:08.876Z,30.00
2018-04-18T06:46:37.300Z,31.43
2018-04-18T06:49:05.737Z,31.13
2018-04-18T06:51:34.208Z,34.57
2018-04-18T06:54:02.674Z,29.30
2018-04-18T06:56:31.143Z,30.63
2018-04-18T06:58:59.636Z,27.53
2018-04-18T07:01:28.081Z,30.60
2018-04-18T07:03:56.512Z,29.83
2018-04-18T07:06:25.001Z,28.33
2018-04-18T07:08:53.452Z,29.67
2018-04-18T07:11:21.896Z,27.87
2018-04-18T07:13:50.512Z,28.17
2018-04-18T07:16:18.952Z,30.63
2018-04-18T07:18:47.392Z,30.03
2018-04-18T07:21:15.881Z,29.33
2018-04-18T07:23:44.314Z,29.00
2018-04-18T07:26:12.752Z,29.83
2018-04-18T07:28:41.224Z,25.80
2018-04-18T07:31:09.647Z,25.23
2018-04-18T07:33:38.076Z,26.40
2018-04-18T07:36:06.553Z,25.77
2018-04-18T07:38:34.988Z,27.93
2018-04-18T07:41:03.415Z,29.93
2018-04-18T07:43:31.887Z,25.83
2018-04-18T07:46:00.318Z,24.00
2018-04-18T07:48:28.745Z,25.80
2018-04-18T07:50:57.241Z,27.10
2018-04-18T07:53:25.681Z,22.67
2018-04-18T07:55:54.108Z,23.77
2018-04-18T07:58:22.597Z,21.93
2018-04-18T08:00:51.028Z,24.53
2018-04-18T08:03:19.462Z,19.67
2018-04-18T08:05:47.956Z,19.80
2018-04-18T08:08:16.404Z,20.57
2018-04-18T08:10:44.833Z,19.60
2018-04-18T08:13:13.296Z,20.60
2018-04-18T08:15:41.718Z,21.70
2018-04-18T08:18:10.155Z,17.90
2018-04-18T08:20:38.626Z,19.97
2018-04-18T08:23:07.076Z,21.90
2018-04-18T08:25:35.525Z,23.63
2018-04-18T08:28:04.008Z,19.00
2018-04-18T08:30:32.458Z,20.27
2018-04-18T08:33:00.913Z,23.47
2018-04-18T08:35:29.424Z,21.07
2018-04-18T08:37:57.848Z,20.50
2018-04-18T08:40:26.297Z,21.17
2018-04-18T08:42:54.791Z,25.80
2018-04-18T08:45:23.229Z,23.27
2018-04-18T08:47:51.668Z,21.30
2018-04-18T08:50:20.147Z,26.27
2018-04-18T08:52:48.589Z,22.73
2018-04-18T08:55:17.024Z,23.57
2018-04-18T08:57:45.488Z,21.13
2018-04-18T09:00:13.934Z,24.50
2018-04-18T09:02:42.404Z,26.37
2018-04-18T09:05:10.873Z,25.70
2018-04-18T09:07:39.311Z,21.93
2018-04-18T09:10:07.765Z,28.00
2018-04-18T09:12:36.240Z,28.77
2018-04-18T09:15:04.665Z,23.80
2018-04-18T09:17:33.102Z,23.17
2018-04-18T09:20:01.570Z,27.70
2018-04-18T09:22:30.008Z,24.13
2018-04-18T09:24:58.444Z,23.90
2018-04-18T09:27:26.924Z,25.97
2018-04-18T09:29:55.361Z,30.73
2018-04-18T09:32:23.792Z,30.10
2018-04-18T09:34:52.282Z,28.07
2018-04-18T09:37:20.744Z,30.30
2018-04-18T09:39:49.165Z,29.57
2018-04-18T09:42:17.629Z,31.37
2018-04-18T09:44:46.056Z,31.47
2018-04-18T09:47:14.496Z,31.40
2018-04-18T09:49:42.973Z,32.70
2018-04-18T09:52:11.404Z,32.15
2018-04-18T09:54:39.834Z,29.40
2018-04-18T09:57:08.304Z,33.65
2018-04-18T09:59:36.764Z,29.12
2018-04-18T10:02:10.857Z,28.92
2018-04-18T10:04:45.036Z,30.23
2018-04-18T10:07:13.508Z,34.70
2018-04-18T10:09:41.937Z,32.92
2018-04-18T10:12:10.369Z,36.40
2018-04-18T10:14:38.835Z,36.17
2018-04-18T10:17:07.293Z,32.40
2018-04-18T10:19:35.737Z,34.45
2018-04-18T10:22:04.228Z,34.03
2018-04-18T10:24:32.670Z,32.88
2018-04-18T10:27:01.124Z,33.65
2018-04-18T10:29:29.628Z,39.97
2018-04-18T10:31:58.061Z,35.63
2018-04-18T10:34:26.521Z,41.85
2018-04-18T10:36:55.016Z,45.12
2018-04-18T10:39:23.480Z,43.87
2018-04-18T10:41:51.918Z,37.20
2018-04-18T10:44:20.411Z,40.42
2018-04-18T10:46:48.866Z,42.13
2018-04-18T10:49:17.313Z,42.00
2018-04-18T10:51:46.088Z,37.95
2018-04-18T10:54:14.548Z,36.30
2018-04-18T10:56:42.981Z,40.25
2018-04-18T10:59:11.460Z,37.17
2018-04-18T11:01:39.897Z,39.45
2018-04-18T11:04:08.353Z,35.78
2018-04-18T11:06:36.864Z,33.25
2018-04-18T11:09:06.317Z,35.80
2018-04-18T11:11:34.760Z,32.47
2018-04-18T11:14:03.323Z,34.22
2018-04-18T11:16:31.784Z,29.25
2018-04-18T11:19:00.236Z,27.37
2018-04-18T11:21:28.708Z,27.90
2018-04-18T11:23:57.142Z,29.92
2018-04-18T11:26:25.568Z,28.77
2018-04-18T11:28:54.080Z,27.73
2018-04-18T11:31:22.513Z,31.08
2018-04-18T11:33:50.956Z,29.67
2018-04-18T11:36:19.428Z,26.42
2018-04-18T11:38:47.855Z,31.65
2018-04-18T11:41:16.336Z,29.75
2018-04-18T11:43:44.834Z,25.52
2018-04-18T11:46:13.347Z,23.25
2018-04-18T11:48:41.825Z,30.48
2018-04-18T11:51:10.356Z,28.15
2018-04-18T11:53:38.816Z,25.42
2018-04-18T11:56:07.264Z,24.48
2018-04-18T11:58:35.750Z,27.05
2018-04-18T12:01:04.209Z,23.80
2018-04-18T12:03:32.641Z,28.30
2018-04-18T12:06:01.129Z,26.75
2018-04-18T12:08:29.585Z,27.27
2018-04-18T12:10:58.036Z,26.23
2018-04-18T12:13:26.616Z,24.85
2018-04-18T12:15:55.048Z,28.12
2018-04-18T12:18:23.495Z,28.15
2018-04-18T12:20:52.039Z,25.45
2018-04-18T12:23:20.495Z,27.62
2018-04-18T12:25:48.925Z,29.12
2018-04-18T12:28:17.411Z,25.27
2018-04-18T12:30:45.840Z,20.65
2018-04-18T12:33:14.323Z,26.80
2018-04-18T12:35:42.790Z,29.20
2018-04-18T12:38:11.240Z,23.90
2018-04-18T12:40:39.694Z,30.00
2018-04-18T12:43:08.190Z,25.90
2018-04-18T12:45:36.613Z,27.80
2018-04-18T12:48:05.062Z,25.98
2018-04-18T12:50:33.549Z,27.45
2018-04-18T12:53:02.321Z,28.25
2018-04-18T12:55:30.795Z,28.08
2018-04-18T12:57:59.282Z,24.65
2018-04-18T13:00:27.713Z,26.55
2018-04-18T13:02:56.163Z,29.73
2018-04-18T13:05:24.647Z,30.30
2018-04-18T13:07:53.125Z,28.80
2018-04-18T13:10:21.604Z,30.88
2018-04-18T13:12:50.094Z,27.83
2018-04-18T13:15:18.541Z,27.83
2018-04-18T13:17:46.988Z,29.40
2018-04-18T13:20:15.486Z,27.77
2018-04-18T13:22:43.948Z,25.70
2018-04-18T13:25:12.425Z,29.27
2018-04-18T13:27:40.912Z,36.08
2018-04-18T13:30:09.356Z,29.70
2018-04-18T13:32:37.792Z,32.35
2018-04-18T13:35:06.288Z,29.63
2018-04-18T13:37:34.753Z,35.15
2018-04-18T13:40:03.206Z,32.17
2018-04-18T13:42:31.716Z,31.00
2018-04-18T13:45:00.210Z,35.10
2018-04-18T13:47:28.681Z,31.40
2018-04-18T13:49:57.189Z,32.25
2018-04-18T13:52:25.640Z,33.85
2018-04-18T13:54:54.132Z,35.83
2018-04-18T13:57:22.593Z,30.58
2018-04-18T13:59:51.029Z,35.22
2018-04-18T14:02:19.460Z,37.03
2018-04-18T14:04:47.944Z,33.33
2018-04-18T14:07:16.732Z,33.40
2018-04-18T14:09:45.176Z,32.38
2018-04-18T14:12:13.655Z,34.13
2018-04-18T14:14:42.136Z,33.38
2018-04-18T14:17:10.621Z,31.45
2018-04-18T14:19:39.316Z,32.97
2018-04-18T14:22:07.764Z,33.13
2018-04-18T14:24:36.217Z,34.88
2018-04-18T14:27:04.699Z,32.45
2018-04-18T14:29:33.137Z,33.40
2018-04-18T14:32:01.644Z,38.83
2018-04-18T14:34:30.114Z,35.28
2018-04-18T14:36:58.581Z,37.78
2018-04-18T14:39:27.016Z,33.17
2018-04-18T14:41:55.689Z,36.03
2018-04-18T14:44:24.137Z,36.63
2018-04-18T14:46:52.569Z,35.53
2018-04-18T14:49:21.061Z,38.35
2018-04-18T14:51:49.512Z,34.53
2018-04-18T14:54:17.981Z,42.53
2018-04-18T14:56:46.455Z,40.78
2018-04-18T14:59:14.904Z,39.40
2018-04-18T15:01:43.348Z,41.25
2018-04-18T15:04:11.908Z,39.35
2018-04-18T15:06:40.379Z,38.58
2018-04-18T15:09:08.817Z,44.42
2018-04-18T15:11:37.497Z,44.30
2018-04-18T15:14:05.953Z,38.45
2018-04-18T15:16:34.396Z,39.80
2018-04-18T15:19:02.868Z,38.75
2018-04-18T15:21:31.304Z,42.30
2018-04-18T15:23:59.752Z,44.15
2018-04-18T15:26:28.225Z,45.05
2018-04-18T15:28:56.664Z,38.90
2018-04-18T15:31:25.162Z,49.25
2018-04-18T15:33:53.660Z,38.10
2018-04-18T15:36:22.085Z,41.92
2018-04-18T15:38:50.520Z,37.83
2018-04-18T15:41:19.013Z,43.35
2018-04-18T15:43:47.449Z,43.15
2018-04-18T15:46:15.888Z,46.97
2018-04-18T15:48:44.578Z,39.67
2018-04-18T15:51:13.029Z,42.83
2018-04-18T15:53:41.481Z,42.15
2018-04-18T15:56:09.973Z,43.63
2018-04-18T15:58:38.418Z,40.33
2018-04-18T16:01:06.904Z,40.42
2018-04-18T16:03:35.393Z,40.12
2018-04-18T16:06:03.829Z,40.80
2018-04-18T16:08:32.285Z,39.38
2018-04-18T16:11:00.766Z,38.90
2018-04-18T16:13:29.231Z,38.13
2018-04-18T16:15:57.683Z,36.20
2018-04-18T16:18:26.152Z,39.60
2018-04-18T16:20:54.688Z,40.20
2018-04-18T16:23:23.132Z,39.03
2018-04-18T16:25:51.624Z,39.38
2018-04-18T16:28:20.068Z,40.08
2018-04-18T16:30:48.500Z,38.85
2018-04-18T16:33:16.981Z,42.78
2018-04-18T16:35:45.456Z,39.88
2018-04-18T16:38:13.897Z,38.65
2018-04-18T16:40:42.365Z,37.60
2018-04-18T16:43:11.080Z,32.95
2018-04-18T16:45:39.508Z,36.45
2018-04-18T16:48:07.994Z,39.05
2018-04-18T16:50:36.463Z,42.60
2018-04-18T16:53:04.882Z,40.23
2018-04-18T16:55:33.375Z,39.88
2018-04-18T16:58:01.819Z,40.63
2018-04-18T17:00:30.272Z,42.27
2018-04-18T17:02:58.765Z,41.93
2018-04-18T17:05:27.188Z,38.45
2018-04-18T17:07:55.632Z,46.47
2018-04-18T17:10:24.116Z,37.50
2018-04-18T17:12:52.568Z,37.40
2018-04-18T17:15:20.984Z,41.73
2018-04-18T17:17:49.493Z,41.90
2018-04-18T17:20:17.919Z,42.17
2018-04-18T17:22:46.340Z,38.27
2018-04-18T17:25:14.841Z,39.97
2018-04-18T17:27:43.308Z,39.47
2018-04-18T17:30:11.749Z,41.80
2018-04-18T17:32:40.233Z,37.00
2018-04-18T17:35:08.664Z,37.07
2018-04-18T17:37:37.100Z,36.53
2018-04-18T17:40:05.619Z,40.97
2018-04-18T17:42:34.041Z,37.83
2018-04-18T17:45:02.478Z,37.87
2018-04-18T17:47:30.984Z,45.20
2018-04-18T17:49:59.445Z,41.27
2018-04-18T17:52:27.897Z,43.87
2018-04-18T17:54:56.416Z,39.23
2018-04-18T17:57:24.844Z,42.80
2018-04-18T17:59:53.275Z,37.40
2018-04-18T18:02:21.761Z,39.00
2018-04-18T18:04:50.180Z,46.30
2018-04-18T18:07:18.604Z,41.77
2018-04-18T18:09:47.096Z,40.13
2018-04-18T18:12:15.533Z,38.73
2018-04-18T18:14:44.212Z,40.27
2018-04-18T18:17:12.905Z,43.03
2018-04-18T18:19:41.360Z,34.93
2018-04-18T18:22:09.828Z,41.93
2018-04-18T18:24:38.327Z,40.90
2018-04-18T18:27:06.798Z,43.70
2018-04-18T18:29:35.261Z,44.33
2018-04-18T18:32:03.770Z,42.80
2018-04-18T18:34:32.213Z,39.80
2018-04-18T18:37:00.664Z,40.87
2018-04-18T18:39:29.145Z,43.63
2018-04-18T18:41:57.582Z,43.90
2018-04-18T18:44:26.037Z,43.23
2018-04-18T18:46:54.513Z,41.30
2018-04-18T18:49:22.946Z,39.70
2018-04-18T18:51:51.408Z,39.77
2018-04-18T18:54:19.924Z,38.03
2018-04-18T18:56:48.413Z,39.30
2018-04-18T18:59:17.755Z,41.03
2018-04-18T19:01:46.286Z,38.53
2018-04-18T19:04:14.744Z,38.40
2018-04-18T19:06:43.163Z,41.87
2018-04-18T19:09:11.674Z,36.57
2018-04-18T19:11:40.119Z,35.50
2018-04-18T19:14:08.564Z,40.43
2018-04-18T19:16:37.137Z,36.53
2018-04-18T19:19:05.574Z,39.70
2018-04-18T19:21:34.068Z,35.63
2018-04-18T19:24:02.570Z,35.47
2018-04-18T19:26:31.009Z,42.77
2018-04-18T19:28:59.435Z,39.00
2018-04-18T19:31:27.909Z,35.20
2018-04-18T19:33:56.369Z,30.77
2018-04-18T19:36:24.821Z,37.97
2018-04-18T19:38:53.305Z,30.60
2018-04-18T19:41:21.756Z,37.60
2018-04-18T19:43:50.196Z,33.90
2018-04-18T19:46:18.707Z,37.43
2018-04-18T19:48:47.165Z,36.13
2018-04-18T19:51:15.600Z,32.50
2018-04-18T19:53:44.076Z,35.40
2018-04-18T19:56:12.533Z,40.03
2018-04-18T19:58:40.970Z,35.30
2018-04-18T20:01:09.468Z,32.97
2018-04-18T20:03:37.911Z,38.53
2018-04-18T20:06:06.372Z,40.23
2018-04-18T20:08:34.868Z,40.30
2018-04-18T20:11:03.369Z,37.60
2018-04-18T20:13:31.813Z,37.57
2018-04-18T20:16:00.323Z,42.93
2018-04-18T20:18:28.800Z,40.60
2018-04-18T20:20:57.237Z,38.63
2018-04-18T20:23:25.717Z,35.63
2018-04-18T20:25:54.210Z,38.20
2018-04-18T20:28:22.704Z,39.60
2018-04-18T20:30:51.140Z,37.30
2018-04-18T20:33:19.569Z,37.10
2018-04-18T20:35:47.994Z,36.20
2018-04-18T20:38:16.474Z,36.00
2018-04-18T20:40:44.927Z,36.83
2018-04-18T20:43:13.361Z,35.43
2018-04-18T20:45:41.823Z,36.60
2018-04-18T20:48:10.245Z,35.40
2018-04-18T20:50:38.668Z,38.13
2018-04-18T20:53:07.154Z,42.60
2018-04-18T20:55:35.633Z,38.53
2018-04-18T20:58:04.080Z,41.83
2018-04-18T21:00:32.598Z,39.33
2018-04-18T21:03:01.051Z,41.87
2018-04-18T21:05:29.509Z,37.70
2018-04-18T21:07:58.012Z,39.70
2018-04-18T21:10:26.471Z,36.17
2018-04-18T21:12:54.920Z,43.03
2018-04-18T21:15:23.421Z,38.60
2018-04-18T21:17:51.867Z,41.87
2018-04-18T21:20:20.300Z,39.00
2018-04-18T21:22:48.769Z,42.80
2018-04-18T21:25:17.205Z,35.70
2018-04-18T21:27:45.708Z,44.53
2018-04-18T21:30:14.170Z,35.53
2018-04-18T21:32:42.618Z,40.20
2018-04-18T21:35:11.453Z,36.93
2018-04-18T21:37:39.930Z,42.47
2018-04-18T21:40:08.369Z,39.33
2018-04-18T21:42:36.804Z,35.17
2018-04-18T21:45:05.292Z,36.30
2018-04-18T21:47:33.726Z,38.03
2018-04-18T21:50:02.161Z,34.50
2018-04-18T21:52:30.694Z,34.97
2018-04-18T21:54:59.153Z,37.00
2018-04-18T21:57:27.588Z,37.73
2018-04-18T21:59:56.098Z,37.60
2018-04-18T22:02:24.528Z,37.70
2018-04-18T22:04:52.958Z,39.73
2018-04-18T22:07:21.452Z,38.47
2018-04-18T22:09:49.913Z,37.77
2018-04-18T22:12:18.355Z,35.50
2018-04-18T22:14:46.841Z,36.63
2018-04-18T22:17:15.285Z,39.40
2018-04-18T22:19:43.720Z,33.07
2018-04-18T22:22:12.245Z,33.70
2018-04-18T22:24:40.705Z,35.67
2018-04-18T22:27:09.169Z,40.97
2018-04-18T22:29:37.641Z,36.83
2018-04-18T22:32:06.076Z,33.97
2018-04-18T22:34:34.504Z,35.20
2018-04-18T22:37:03.005Z,36.30
2018-04-18T22:39:31.453Z,37.37
2018-04-18T22:41:59.889Z,36.67
2018-04-18T22:44:28.360Z,37.73
2018-04-18T22:46:56.850Z,36.40
2018-04-18T22:49:25.273Z,34.23
2018-04-18T22:51:53.763Z,34.83
2018-04-18T22:54:22.200Z,40.30
2018-04-18T22:56:50.665Z,36.27
2018-04-18T22:59:19.132Z,37.80
2018-04-18T23:01:47.549Z,39.23
2018-04-18T23:04:15.998Z,35.70
2018-04-18T23:06:44.481Z,39.40
2018-04-18T23:09:12.914Z,41.87
2018-04-18T23:11:41.357Z,37.60
2018-04-18T23:14:09.885Z,38.73
2018-04-18T23:16:38.330Z,36.23
2018-04-18T23:19:07.084Z,35.73
2018-04-18T23:21:35.587Z,34.83
2018-04-18T23:24:04.032Z,42.10
2018-04-18T23:26:32.457Z,41.33
2018-04-18T23:29:00.950Z,40.37
2018-04-18T23:31:29.397Z,43.63
2018-04-18T23:33:57.832Z,40.43
2018-04-18T23:36:26.322Z,51.43
2018-04-18T23:38:54.765Z,46.23
2018-04-18T23:41:23.216Z,43.27
2018-04-18T23:43:51.680Z,41.87
2018-04-18T23:46:20.114Z,42.77
2018-04-18T23:48:48.540Z,41.37
2018-04-18T23:51:17.037Z,45.40
2018-04-18T23:53:45.475Z,38.67
2018-04-18T23:56:13.908Z,43.60
2018-04-18T23:58:42.639Z,42.83
